createdAt,value
2023-04-09T00:00:30.828Z,27.13
2023-04-09T00:02:58.749Z,27.50
2023-04-09T00:05:26.658Z,28.80
2023-04-09T00:07:54.668Z,28.33
2023-04-09T00:10:22.621Z,28.17
2023-04-09T00:12:50.518Z,27.20
2023-04-09T00:15:30.085Z,27.30
2023-04-09T00:18:01.222Z,28.60
2023-04-09T00:20:29.097Z,28.73
2023-04-09T00:22:58.127Z,27.20
2023-04-09T00:25:25.989Z,28.87
2023-04-09T00:27:53.740Z,28.33
2023-04-09T00:30:21.925Z,27.83
2023-04-09T00:32:50.482Z,26.20
2023-04-09T00:35:19.809Z,28.63
2023-04-09T00:37:47.660Z,27.60
2023-04-09T00:40:15.511Z,25.43
2023-04-09T00:42:43.322Z,27.80
2023-04-09T00:45:11.845Z,27.33
2023-04-09T00:47:39.793Z,27.67
2023-04-09T00:50:08.508Z,28.13
2023-04-09T00:52:37.701Z,28.80
2023-04-09T00:55:07.106Z,29.80
2023-04-09T00:57:35.985Z,29.53
2023-04-09T01:00:04.681Z,27.80
2023-04-09T01:02:32.804Z,29.00
2023-04-09T01:05:00.780Z,28.37
2023-04-09T01:07:40.686Z,30.27
2023-04-09T01:10:18.051Z,30.23
2023-04-09T01:12:55.647Z,30.03
2023-04-09T01:15:27.737Z,29.77
2023-04-09T01:18:03.814Z,30.13
2023-04-09T01:20:36.661Z,29.80
2023-04-09T01:23:17.008Z,29.93
2023-04-09T01:25:50.810Z,30.43
2023-04-09T01:28:23.618Z,28.53
2023-04-09T01:30:58.521Z,30.57
2023-04-09T01:33:28.058Z,31.10
2023-04-09T01:35:58.225Z,28.63
2023-04-09T01:38:27.495Z,29.73
2023-04-09T01:40:56.601Z,29.53
2023-04-09T01:43:28.603Z,26.90
2023-04-09T01:45:56.778Z,27.20
2023-04-09T01:48:25.454Z,27.67
2023-04-09T01:50:53.518Z,28.27
2023-04-09T01:53:22.845Z,26.73
2023-04-09T01:55:50.719Z,28.67
2023-04-09T01:58:18.547Z,28.93
2023-04-09T02:00:49.560Z,27.53
2023-04-09T02:03:22.817Z,26.80
2023-04-09T02:05:56.451Z,29.70
2023-04-09T02:08:26.004Z,29.43
2023-04-09T02:10:59.066Z,28.47
2023-04-09T02:13:28.324Z,29.30
2023-04-09T02:16:00.851Z,29.43
2023-04-09T02:18:30.992Z,28.93
2023-04-09T02:20:59.847Z,27.67
2023-04-09T02:23:28.183Z,26.73
2023-04-09T02:25:56.175Z,28.17
2023-04-09T02:28:24.010Z,29.20
2023-04-09T02:30:52.992Z,28.60
2023-04-09T02:33:22.503Z,30.43
2023-04-09T02:35:50.372Z,29.87
2023-04-09T02:38:18.296Z,30.20
2023-04-09T02:40:46.190Z,31.10
2023-04-09T02:43:14.101Z,31.23
2023-04-09T02:45:41.937Z,33.53
2023-04-09T02:48:09.758Z,33.27
2023-04-09T02:50:38.988Z,31.43
2023-04-09T02:53:06.813Z,32.50
2023-04-09T02:55:34.710Z,30.97
2023-04-09T02:58:02.476Z,33.43
2023-04-09T03:00:30.293Z,35.23
2023-04-09T03:02:58.544Z,36.13
2023-04-09T03:05:26.485Z,36.33
2023-04-09T03:07:56.209Z,36.23
2023-04-09T03:10:24.036Z,34.83
2023-04-09T03:12:51.861Z,35.47
2023-04-09T03:15:19.745Z,41.27
2023-04-09T03:17:47.588Z,43.03
2023-04-09T03:20:15.440Z,42.80
2023-04-09T03:22:43.308Z,39.53
2023-04-09T03:25:23.556Z,41.33
2023-04-09T03:27:55.081Z,40.83
2023-04-09T03:30:41.385Z,41.93
2023-04-09T03:33:09.959Z,41.20
2023-04-09T03:35:48.621Z,39.83
2023-04-09T03:38:19.586Z,38.03
2023-04-09T03:40:48.808Z,41.13
2023-04-09T03:43:16.748Z,39.47
2023-04-09T03:45:50.092Z,39.20
2023-04-09T03:48:23.171Z,36.23
2023-04-09T03:50:53.489Z,35.67
2023-04-09T03:53:29.065Z,37.50
2023-04-09T03:56:04.396Z,36.57
2023-04-09T03:58:33.362Z,34.10
2023-04-09T04:01:01.703Z,34.50
2023-04-09T04:03:38.090Z,36.27
2023-04-09T04:06:34.581Z,37.70
2023-04-09T04:09:10.870Z,35.47
2023-04-09T04:11:51.057Z,36.67
2023-04-09T04:14:20.357Z,42.27
2023-04-09T04:16:53.568Z,41.80
2023-04-09T04:19:24.122Z,44.33
2023-04-09T04:21:52.965Z,47.37
2023-04-09T04:24:20.816Z,46.87
2023-04-09T04:26:49.208Z,47.87
2023-04-09T04:29:21.196Z,47.37
2023-04-09T04:31:57.577Z,46.47
2023-04-09T04:34:28.808Z,47.73
2023-04-09T04:37:02.968Z,51.87
2023-04-09T04:39:33.721Z,48.10
2023-04-09T04:42:06.005Z,44.70
2023-04-09T04:44:35.190Z,49.10
2023-04-09T04:47:13.607Z,43.97
2023-04-09T04:49:41.511Z,43.20
2023-04-09T04:52:10.157Z,44.53
2023-04-09T04:54:41.332Z,40.37
2023-04-09T04:57:10.224Z,42.87
2023-04-09T04:59:43.349Z,41.40
2023-04-09T05:02:13.667Z,42.33
2023-04-09T05:05:13.843Z,39.63
2023-04-09T05:07:48.517Z,37.70
2023-04-09T05:10:16.365Z,34.53
2023-04-09T05:12:44.796Z,35.40
2023-04-09T05:15:17.058Z,33.47
2023-04-09T05:17:44.969Z,34.83
2023-04-09T05:20:14.790Z,34.77
2023-04-09T05:23:02.585Z,32.70
2023-04-09T05:25:35.601Z,32.43
2023-04-09T05:28:04.514Z,32.80
2023-04-09T05:30:35.710Z,30.17
2023-04-09T05:33:06.173Z,31.23
2023-04-09T05:35:34.612Z,30.67
2023-04-09T05:38:02.549Z,30.13
2023-04-09T05:40:30.483Z,30.17
2023-04-09T05:42:58.445Z,29.30
2023-04-09T05:45:39.762Z,31.03
2023-04-09T05:48:08.430Z,29.77
2023-04-09T05:50:51.074Z,30.20
2023-04-09T05:53:22.998Z,28.40
2023-04-09T05:55:51.165Z,28.27
2023-04-09T05:58:21.825Z,26.10
2023-04-09T06:00:52.575Z,27.23
2023-04-09T06:03:21.037Z,26.37
2023-04-09T06:05:49.311Z,25.23
2023-04-09T06:08:17.258Z,26.03
2023-04-09T06:10:45.175Z,25.97
2023-04-09T06:13:12.955Z,23.60
2023-04-09T06:15:40.793Z,29.73
2023-04-09T06:18:10.013Z,22.17
2023-04-09T06:20:37.813Z,22.20
2023-04-09T06:23:06.181Z,20.43
2023-04-09T06:25:34.056Z,21.17
2023-04-09T06:28:01.965Z,21.10
2023-04-09T06:30:31.812Z,20.93
2023-04-09T06:32:59.672Z,20.07
2023-04-09T06:35:29.781Z,19.17
2023-04-09T06:37:57.614Z,18.93
2023-04-09T06:40:25.473Z,18.10
2023-04-09T06:42:53.349Z,18.17
2023-04-09T06:45:31.188Z,17.37
2023-04-09T06:47:59.297Z,17.57
2023-04-09T06:50:27.329Z,17.33
2023-04-09T06:52:57.072Z,17.10
2023-04-09T06:55:26.791Z,24.33
2023-04-09T06:57:54.743Z,16.57
2023-04-09T07:00:23.094Z,16.57
2023-04-09T07:02:51.317Z,16.53
2023-04-09T07:05:19.632Z,16.67
2023-04-09T07:07:47.519Z,17.20
2023-04-09T07:10:16.826Z,15.97
2023-04-09T07:12:44.645Z,17.17
2023-04-09T07:15:12.430Z,16.43
2023-04-09T07:17:40.261Z,16.13
2023-04-09T07:20:08.957Z,20.47
2023-04-09T07:22:36.816Z,17.23
2023-04-09T07:25:05.471Z,16.07
2023-04-09T07:27:34.577Z,14.10
2023-04-09T07:30:03.218Z,15.50
2023-04-09T07:32:31.141Z,14.53
2023-04-09T07:34:59.393Z,13.97
2023-04-09T07:37:27.445Z,13.63
2023-04-09T07:39:55.475Z,13.50
2023-04-09T07:42:23.210Z,14.20
2023-04-09T07:44:52.392Z,13.20
2023-04-09T07:47:20.327Z,13.27
2023-04-09T07:49:50.051Z,13.65
2023-04-09T07:52:17.889Z,13.50
2023-04-09T07:54:45.712Z,14.27
2023-04-09T07:57:14.041Z,13.93
2023-04-09T07:59:41.827Z,13.57
2023-04-09T08:02:14.345Z,13.48
2023-04-09T08:04:43.137Z,35.90
2023-04-09T08:07:11.499Z,13.88
2023-04-09T08:09:39.294Z,12.77
2023-04-09T08:12:07.115Z,12.55
2023-04-09T08:14:35.063Z,13.65
2023-04-09T08:17:02.881Z,13.27
2023-04-09T08:19:32.143Z,12.30
2023-04-09T08:22:00.022Z,12.65
2023-04-09T08:24:28.222Z,12.23
2023-04-09T08:26:56.631Z,12.43
2023-04-09T08:29:24.446Z,13.13
2023-04-09T08:31:52.221Z,12.73
2023-04-09T08:34:22.019Z,12.52
2023-04-09T08:36:51.285Z,12.50
2023-04-09T08:39:20.148Z,12.30
2023-04-09T08:41:48.587Z,13.15
2023-04-09T08:44:17.690Z,12.48
2023-04-09T08:46:45.708Z,12.07
2023-04-09T08:49:13.574Z,12.20
2023-04-09T08:51:46.902Z,11.25
2023-04-09T08:54:19.896Z,11.70
2023-04-09T08:56:47.914Z,11.48
2023-04-09T08:59:18.495Z,11.63
2023-04-09T09:01:47.957Z,10.73
2023-04-09T09:04:16.182Z,10.13
2023-04-09T09:06:44.512Z,10.23
2023-04-09T09:09:14.752Z,10.00
2023-04-09T09:11:45.698Z,10.27
2023-04-09T09:14:14.872Z,9.95
2023-04-09T09:16:44.339Z,10.45
2023-04-09T09:19:30.245Z,10.35
2023-04-09T09:21:59.417Z,10.23
2023-04-09T09:24:27.336Z,8.10
2023-04-09T09:26:57.422Z,8.52
2023-04-09T09:29:25.948Z,7.18
2023-04-09T09:31:55.633Z,8.10
2023-04-09T09:34:25.219Z,7.25
2023-04-09T09:36:53.038Z,8.13
2023-04-09T09:39:22.058Z,8.48
2023-04-09T09:42:07.568Z,8.18
2023-04-09T09:44:36.733Z,8.38
2023-04-09T09:47:05.531Z,7.70
2023-04-09T09:49:33.594Z,8.13
2023-04-09T09:52:03.913Z,7.38
2023-04-09T09:54:40.960Z,7.82
2023-04-09T09:57:10.193Z,7.43
2023-04-09T09:59:44.432Z,6.93
2023-04-09T10:02:19.445Z,7.68
2023-04-09T10:04:49.645Z,7.72
2023-04-09T10:07:19.388Z,7.00
2023-04-09T10:09:50.754Z,7.65
2023-04-09T10:12:23.637Z,7.70
2023-04-09T10:14:54.102Z,7.40
2023-04-09T10:17:22.057Z,7.32
2023-04-09T10:20:00.383Z,6.93
2023-04-09T10:22:32.756Z,7.70
2023-04-09T10:25:00.652Z,6.60
2023-04-09T10:27:28.409Z,6.78
2023-04-09T10:29:57.553Z,7.03
2023-04-09T10:32:28.004Z,7.38
2023-04-09T10:34:59.209Z,7.40
2023-04-09T10:37:28.596Z,7.78
2023-04-09T10:39:57.834Z,6.43
2023-04-09T10:42:31.811Z,7.28
2023-04-09T10:45:08.980Z,7.30
2023-04-09T10:47:37.945Z,7.18
2023-04-09T10:50:22.503Z,6.85
2023-04-09T10:52:54.586Z,6.75
2023-04-09T10:55:34.023Z,6.82
2023-04-09T10:58:01.921Z,8.07
2023-04-09T11:00:31.009Z,7.50
2023-04-09T11:03:20.207Z,6.32
2023-04-09T11:05:52.547Z,7.35
2023-04-09T11:08:22.044Z,7.15
2023-04-09T11:10:52.245Z,7.03
2023-04-09T11:13:21.823Z,7.22
2023-04-09T11:15:51.727Z,6.97
2023-04-09T11:18:24.782Z,8.93
2023-04-09T11:20:56.177Z,6.88
2023-04-09T11:23:25.257Z,6.95
2023-04-09T11:25:54.090Z,7.20
2023-04-09T11:28:22.181Z,6.78
2023-04-09T11:30:53.719Z,7.75
2023-04-09T11:33:21.606Z,7.40
2023-04-09T11:35:49.760Z,7.45
2023-04-09T11:38:17.833Z,7.25
2023-04-09T11:40:48.535Z,7.38
2023-04-09T11:43:17.704Z,7.22
2023-04-09T11:45:48.142Z,7.22
2023-04-09T11:48:19.168Z,7.45
2023-04-09T11:50:47.842Z,7.38
2023-04-09T11:53:20.408Z,7.25
2023-04-09T11:55:50.624Z,7.10
2023-04-09T11:58:18.604Z,7.68
2023-04-09T12:00:46.574Z,7.85
2023-04-09T12:03:16.462Z,8.00
2023-04-09T12:05:51.028Z,7.60
2023-04-09T12:08:24.813Z,8.27
2023-04-09T12:10:53.878Z,6.95
2023-04-09T12:13:22.109Z,6.95
2023-04-09T12:15:51.383Z,7.35
2023-04-09T12:18:19.226Z,6.75
2023-04-09T12:20:49.690Z,7.03
2023-04-09T12:23:17.872Z,6.72
2023-04-09T12:25:47.628Z,7.13
2023-04-09T12:28:18.287Z,7.10
2023-04-09T12:30:46.994Z,6.82
2023-04-09T12:33:14.787Z,7.03
2023-04-09T12:35:42.610Z,6.20
2023-04-09T12:38:11.905Z,6.72
2023-04-09T12:40:40.199Z,6.78
2023-04-09T12:43:07.943Z,6.65
2023-04-09T12:45:35.922Z,7.03
2023-04-09T12:48:03.762Z,7.30
2023-04-09T12:50:31.612Z,6.82
2023-04-09T12:52:59.357Z,7.20
2023-04-09T12:55:28.982Z,6.50
2023-04-09T12:57:56.762Z,6.60
2023-04-09T13:00:24.607Z,7.03
2023-04-09T13:02:52.829Z,6.60
2023-04-09T13:05:20.941Z,7.65
2023-04-09T13:07:48.712Z,6.97
2023-04-09T13:10:16.690Z,11.05
2023-04-09T13:12:45.890Z,8.10
2023-04-09T13:15:13.722Z,6.72
2023-04-09T13:17:41.533Z,6.45
2023-04-09T13:20:10.330Z,6.47
2023-04-09T13:22:38.348Z,6.78
2023-04-09T13:25:06.788Z,6.20
2023-04-09T13:27:34.671Z,6.60
2023-04-09T13:30:03.969Z,6.88
2023-04-09T13:32:31.881Z,6.35
2023-04-09T13:34:59.864Z,6.60
2023-04-09T13:37:27.789Z,6.20
2023-04-09T13:39:55.608Z,6.13
2023-04-09T13:42:23.354Z,7.20
2023-04-09T13:44:51.294Z,6.53
2023-04-09T13:47:21.073Z,6.45
2023-04-09T13:49:51.398Z,6.25
2023-04-09T13:52:19.189Z,7.50
2023-04-09T13:54:47.158Z,6.63
2023-04-09T13:57:15.074Z,7.55
2023-04-09T13:59:43.989Z,6.43
2023-04-09T14:02:12.020Z,6.57
2023-04-09T14:04:41.300Z,7.13
2023-04-09T14:07:09.168Z,5.97
2023-04-09T14:09:37.021Z,6.65
2023-04-09T14:12:05.013Z,6.15
2023-04-09T14:14:32.831Z,6.65
2023-04-09T14:17:00.577Z,6.00
2023-04-09T14:19:28.460Z,5.75
2023-04-09T14:21:57.690Z,6.07
2023-04-09T14:24:25.730Z,6.13
2023-04-09T14:26:53.785Z,6.32
2023-04-09T14:29:22.588Z,6.18
2023-04-09T14:31:51.700Z,5.82
2023-04-09T14:34:19.645Z,6.18
2023-04-09T14:36:47.805Z,5.78
2023-04-09T14:39:17.734Z,6.70
2023-04-09T14:41:45.631Z,6.28
2023-04-09T14:44:13.646Z,5.93
2023-04-09T14:46:41.546Z,5.90
2023-04-09T14:49:09.469Z,5.50
2023-04-09T14:51:37.295Z,6.55
2023-04-09T14:54:05.179Z,5.95
2023-04-09T14:56:36.093Z,5.93
2023-04-09T14:59:04.265Z,6.13
2023-04-09T15:01:33.142Z,5.50
2023-04-09T15:04:01.391Z,6.15
2023-04-09T15:06:31.355Z,6.13
2023-04-09T15:08:59.203Z,6.05
2023-04-09T15:11:27.894Z,6.20
2023-04-09T15:13:57.886Z,6.30
2023-04-09T15:16:29.238Z,5.82
2023-04-09T15:18:59.034Z,5.80
2023-04-09T15:21:27.179Z,5.75
2023-04-09T15:23:55.226Z,5.57
2023-04-09T15:26:23.112Z,5.30
2023-04-09T15:28:51.284Z,5.68
2023-04-09T15:31:21.132Z,5.20
2023-04-09T15:33:50.386Z,5.65
2023-04-09T15:36:18.203Z,5.88
2023-04-09T15:38:46.092Z,5.65
2023-04-09T15:41:13.851Z,5.72
2023-04-09T15:43:41.671Z,5.70
2023-04-09T15:46:10.605Z,5.38
2023-04-09T15:48:39.910Z,5.60
2023-04-09T15:51:08.047Z,5.38
2023-04-09T15:53:35.903Z,5.22
2023-04-09T15:56:04.214Z,6.13
2023-04-09T15:58:32.128Z,6.10
2023-04-09T16:01:00.034Z,5.55
2023-04-09T16:03:27.899Z,5.40
2023-04-09T16:05:57.047Z,5.80
2023-04-09T16:08:26.344Z,5.57
2023-04-09T16:10:54.116Z,5.45
2023-04-09T16:13:22.010Z,5.45
2023-04-09T16:15:51.028Z,4.97
2023-04-09T16:18:18.885Z,5.22
2023-04-09T16:20:47.095Z,4.88
2023-04-09T16:23:16.272Z,4.82
2023-04-09T16:25:44.100Z,4.85
2023-04-09T16:28:11.878Z,5.32
2023-04-09T16:30:39.630Z,5.00
2023-04-09T16:33:08.632Z,4.57
2023-04-09T16:35:38.857Z,4.50
2023-04-09T16:38:07.637Z,4.85
2023-04-09T16:40:36.799Z,4.68
2023-04-09T16:43:04.717Z,5.20
2023-04-09T16:45:32.806Z,5.30
2023-04-09T16:48:00.783Z,5.10
2023-04-09T16:50:28.744Z,5.07
2023-04-09T16:52:56.612Z,4.93
2023-04-09T16:55:24.502Z,4.90
2023-04-09T16:57:55.963Z,4.32
2023-04-09T17:00:23.987Z,4.57
2023-04-09T17:02:52.028Z,4.53
2023-04-09T17:05:20.301Z,4.63
2023-04-09T17:07:48.200Z,4.93
2023-04-09T17:10:16.412Z,5.03
2023-04-09T17:12:44.351Z,4.50
2023-04-09T17:15:13.858Z,4.57
2023-04-09T17:17:41.741Z,4.32
2023-04-09T17:20:10.488Z,4.43
2023-04-09T17:22:39.285Z,4.50
2023-04-09T17:25:08.684Z,5.30
2023-04-09T17:27:36.759Z,4.88
2023-04-09T17:30:04.984Z,5.05
2023-04-09T17:32:34.232Z,4.47
2023-04-09T17:35:03.606Z,4.90
2023-04-09T17:37:31.411Z,4.68
2023-04-09T17:39:59.212Z,5.03
2023-04-09T17:42:27.012Z,5.10
2023-04-09T17:44:54.741Z,4.57
2023-04-09T17:47:22.614Z,5.13
2023-04-09T17:49:51.788Z,5.47
2023-04-09T17:52:20.432Z,5.22
2023-04-09T17:54:50.565Z,4.90
2023-04-09T17:57:18.446Z,4.68
2023-04-09T17:59:46.231Z,5.32
2023-04-09T18:02:14.201Z,5.05
2023-04-09T18:04:42.284Z,5.05
2023-04-09T18:07:11.583Z,5.20
2023-04-09T18:09:40.510Z,5.32
2023-04-09T18:12:08.445Z,5.68
2023-04-09T18:14:36.276Z,5.70
2023-04-09T18:17:04.155Z,5.65
2023-04-09T18:19:32.163Z,6.10
2023-04-09T18:22:00.159Z,5.70
2023-04-09T18:24:30.222Z,5.95
2023-04-09T18:26:58.042Z,6.30
2023-04-09T18:29:27.468Z,6.65
2023-04-09T18:31:56.060Z,6.72
2023-04-09T18:34:24.294Z,7.93
2023-04-09T18:36:52.575Z,7.22
2023-04-09T18:39:21.012Z,6.70
2023-04-09T18:41:50.430Z,7.22
2023-04-09T18:44:18.174Z,6.90
2023-04-09T18:46:45.982Z,7.70
2023-04-09T18:49:13.774Z,7.75
2023-04-09T18:51:41.634Z,7.20
2023-04-09T18:54:09.509Z,7.13
2023-04-09T18:56:37.239Z,7.93
2023-04-09T18:59:06.438Z,7.75
2023-04-09T19:01:34.340Z,7.22
2023-04-09T19:04:02.360Z,7.53
2023-04-09T19:06:30.383Z,7.65
2023-04-09T19:08:58.972Z,8.27
2023-04-09T19:11:27.046Z,8.00
2023-04-09T19:13:55.084Z,7.95
2023-04-09T19:16:24.349Z,8.57
2023-04-09T19:18:52.398Z,7.22
2023-04-09T19:21:20.369Z,7.03
2023-04-09T19:23:48.116Z,7.60
2023-04-09T19:26:15.899Z,7.55
2023-04-09T19:28:43.641Z,8.00
2023-04-09T19:31:14.260Z,8.13
2023-04-09T19:33:43.572Z,8.13
2023-04-09T19:36:12.883Z,9.05
2023-04-09T19:38:40.922Z,9.70
2023-04-09T19:41:08.757Z,9.50
2023-04-09T19:43:38.681Z,11.30
2023-04-09T19:46:08.411Z,9.77
2023-04-09T19:48:36.543Z,9.18
2023-04-09T19:51:06.112Z,9.25
2023-04-09T19:53:36.239Z,9.40
2023-04-09T19:56:05.683Z,9.05
2023-04-09T19:58:33.655Z,9.60
2023-04-09T20:01:01.600Z,8.83
2023-04-09T20:03:29.479Z,9.17
2023-04-09T20:05:57.477Z,9.37
2023-04-09T20:08:27.372Z,10.30
2023-04-09T20:10:55.221Z,10.00
2023-04-09T20:13:23.345Z,9.60
2023-04-09T20:15:51.706Z,41.90
2023-04-09T20:18:19.643Z,13.80
2023-04-09T20:20:47.613Z,10.17
2023-04-09T20:23:15.504Z,10.40
2023-04-09T20:25:44.626Z,11.40
2023-04-09T20:28:12.508Z,11.60
2023-04-09T20:30:40.330Z,10.50
2023-04-09T20:33:08.119Z,11.10
2023-04-09T20:35:36.637Z,10.13
2023-04-09T20:38:04.663Z,9.70
2023-04-09T20:40:33.068Z,10.30
2023-04-09T20:43:02.397Z,10.93
2023-04-09T20:45:30.399Z,11.23
2023-04-09T20:47:58.321Z,11.40
2023-04-09T20:50:26.194Z,11.70
2023-04-09T20:52:54.003Z,12.20
2023-04-09T20:55:22.031Z,12.80
2023-04-09T20:57:50.132Z,15.33
2023-04-09T21:00:19.713Z,15.07
2023-04-09T21:02:47.564Z,16.90
2023-04-09T21:05:22.583Z,17.00
2023-04-09T21:07:51.517Z,19.97
2023-04-09T21:10:19.437Z,24.97
2023-04-09T21:12:47.177Z,27.93
2023-04-09T21:15:15.343Z,30.00
2023-04-09T21:17:44.602Z,30.50
2023-04-09T21:20:13.060Z,27.60
2023-04-09T21:22:41.029Z,26.17
2023-04-09T21:25:09.669Z,25.73
2023-04-09T21:27:37.520Z,23.80
2023-04-09T21:30:06.079Z,24.67
2023-04-09T21:32:33.946Z,23.90
2023-04-09T21:35:03.118Z,23.17
2023-04-09T21:37:32.978Z,23.20
2023-04-09T21:40:00.831Z,22.87
2023-04-09T21:42:31.417Z,22.50
2023-04-09T21:44:59.461Z,23.03
2023-04-09T21:47:27.609Z,24.17
2023-04-09T21:49:55.685Z,23.30
2023-04-09T21:52:25.164Z,24.83
2023-04-09T21:54:52.970Z,24.27
2023-04-09T21:57:20.835Z,24.33
2023-04-09T21:59:48.636Z,25.47
2023-04-09T22:02:16.665Z,24.63
2023-04-09T22:04:44.589Z,24.93
2023-04-09T22:07:13.008Z,26.07
2023-04-09T22:09:42.164Z,26.33
2023-04-09T22:12:09.953Z,25.80
2023-04-09T22:14:39.173Z,26.00
2023-04-09T22:17:08.788Z,27.23
2023-04-09T22:19:36.743Z,27.37
2023-04-09T22:22:04.565Z,29.13
2023-04-09T22:24:33.739Z,27.70
2023-04-09T22:27:02.870Z,29.00
2023-04-09T22:29:31.251Z,28.87
2023-04-09T22:31:59.065Z,30.57
2023-04-09T22:34:27.230Z,30.80
2023-04-09T22:36:55.034Z,30.87
2023-04-09T22:39:22.818Z,30.73
2023-04-09T22:41:50.649Z,29.73
2023-04-09T22:44:19.878Z,30.50
2023-04-09T22:46:47.731Z,30.50
2023-04-09T22:49:15.829Z,30.53
2023-04-09T22:51:43.664Z,30.87
2023-04-09T22:54:11.477Z,31.37
2023-04-09T22:56:39.666Z,30.53
2023-04-09T22:59:07.563Z,30.83
2023-04-09T23:01:36.826Z,30.70
2023-04-09T23:04:04.768Z,31.53
2023-04-09T23:06:32.756Z,32.00
2023-04-09T23:09:00.939Z,32.97
2023-04-09T23:11:28.915Z,34.40
2023-04-09T23:13:56.653Z,35.47
2023-04-09T23:16:24.506Z,35.40
2023-04-09T23:18:53.974Z,41.77
2023-04-09T23:21:22.069Z,38.73
2023-04-09T23:23:49.853Z,40.67
2023-04-09T23:26:17.592Z,41.87
2023-04-09T23:28:45.403Z,42.50
2023-04-09T23:31:13.229Z,42.80
2023-04-09T23:33:41.101Z,44.87
2023-04-09T23:36:10.872Z,43.00
2023-04-09T23:38:40.285Z,42.63
2023-04-09T23:41:08.249Z,46.13
2023-04-09T23:43:35.996Z,46.10
2023-04-09T23:46:03.784Z,49.47
2023-04-09T23:48:31.545Z,49.20
2023-04-09T23:50:59.324Z,55.33
2023-04-09T23:53:28.435Z,49.47
2023-04-09T23:55:56.187Z,51.10
2023-04-09T23:58:24.042Z,52.27
